Terminal Aerodrome Forecast
Issued by NWS

Current Version | Previous Version | Text Only | Print | Product List | Glossary Off
Versions: 1 2 3 4 5 6 7 8 9 10 11 12 13 14 15 16 17 18 19

000
FTUS41 KPBZ 201428 AAA
TAFHLG
TAF AMD
KHLG 201428Z 2014/2112 15008KT 6SM -RA BR OVC025
      TEMPO 2014/2018 4SM -RA OVC018
     FM201800 20006KT P6SM OVC015
     FM210000 20003KT 4SM BR OVC008
     FM211100 20004KT P6SM OVC015=

USA.gov is the U.S. government's official web portal to all federal, state and local government web resources and services.